Time;durP1;ratioP1;P1;durP2;ratioP2;P2;SDS_P1;SDS_P2;PMS_P1;PMS_P2;Temp;Humidity;BMP_temperature;BMP_pressure;BME280_temperature;BME280_humidity;BME280_pressure;Samples;Min_cycle;Max_cycle;Signal;HPM_P1;HPM_P2
2021/03/01 00:01:00;;;;;;;25.67;12.43;;;;;;;5.26;nan;102321.97;5020039;28;20521;-72
2021/03/01 00:03:27;;;;;;;29.70;12.97;;;;;;;5.31;nan;102316.47;5025229;28;20518;-72
2021/03/01 00:05:53;;;;;;;25.80;12.03;;;;;;;5.70;nan;102313.28;5024756;28;20541;-72
2021/03/01 00:08:20;;;;;;;24.93;12.53;;;;;;;5.42;nan;102313.47;5025440;28;20435;-72
2021/03/01 00:10:46;;;;;;;24.80;12.53;;;;;;;5.58;nan;102311.09;5025017;28;20498;-72
2021/03/01 00:13:12;;;;;;;29.10;13.43;;;;;;;5.68;nan;102306.28;5025452;28;20461;-72
2021/03/01 00:15:38;;;;;;;24.67;12.50;;;;;;;5.41;nan;102301.09;5024392;28;20498;-72
2021/03/01 00:18:05;;;;;;;18.60;11.87;;;;;;;5.37;nan;102305.66;5025315;28;20461;-72
2021/03/01 00:20:31;;;;;;;25.70;12.67;;;;;;;5.52;nan;102308.66;5024945;28;20660;-72
2021/03/01 00:22:57;;;;;;;22.27;11.50;;;;;;;5.25;nan;102303.47;5024674;28;20541;-72
2021/03/01 00:25:24;;;;;;;26.30;12.87;;;;;;;5.28;nan;102304.22;5024540;28;20534;-72
2021/03/01 00:27:50;;;;;;;22.13;11.57;;;;;;;5.32;nan;102312.06;5024882;28;20482;-72
2021/03/01 00:30:17;;;;;;;22.10;11.80;;;;;;;5.26;nan;102308.72;5024233;28;20470;-72
2021/03/01 00:32:43;;;;;;;27.13;11.77;;;;;;;5.48;nan;102305.25;5024608;28;20491;-72
2021/03/01 00:35:10;;;;;;;20.27;11.40;;;;;;;5.40;nan;102294.94;5024719;28;20900;-72
2021/03/01 00:37:37;;;;;;;25.13;10.90;;;;;;;5.52;nan;102300.69;5024987;28;20461;-73
2021/03/01 00:40:05;;;;;;;25.33;11.60;;;;;;;5.67;nan;102300.13;5025064;28;20493;-72
2021/03/01 00:42:32;;;;;;;20.23;11.50;;;;;;;5.68;nan;102303.63;5016140;28;20482;-72
2021/03/01 00:44:58;;;;;;;24.03;11.50;;;;;;;5.45;nan;102303.59;5024287;28;20451;-72
2021/03/01 00:47:24;;;;;;;24.83;10.50;;;;;;;5.14;nan;102298.53;5024175;28;20498;-72
2021/03/01 00:49:50;;;;;;;23.77;12.10;;;;;;;5.37;nan;102308.31;5024772;28;20486;-72
2021/03/01 00:52:16;;;;;;;26.87;12.20;;;;;;;5.70;nan;102309.78;5024236;28;20553;-72
2021/03/01 00:54:42;;;;;;;25.53;12.17;;;;;;;5.71;nan;102303.53;5024737;28;20457;-72
2021/03/01 00:57:08;;;;;;;24.93;12.50;;;;;;;5.74;nan;102303.41;5023486;28;20486;-72
2021/03/01 00:59:35;;;;;;;27.43;11.03;;;;;;;5.36;nan;102303.91;5024332;28;20478;-72
2021/03/01 01:02:01;;;;;;;22.20;10.60;;;;;;;5.37;nan;102310.97;5023707;28;20487;-72
2021/03/01 01:04:27;;;;;;;21.30;11.23;;;;;;;5.87;nan;102299.38;5023680;28;20495;-72
2021/03/01 01:06:54;;;;;;;22.87;12.37;;;;;;;5.98;nan;102293.66;5023310;28;20563;-72
2021/03/01 01:09:20;;;;;;;25.17;11.57;;;;;;;5.78;nan;102297.94;5024757;28;20446;-72
2021/03/01 01:11:46;;;;;;;25.63;12.67;;;;;;;5.55;nan;102295.28;5023486;28;20482;-72
2021/03/01 01:14:12;;;;;;;26.73;12.40;;;;;;;5.46;nan;102297.34;5023467;28;20549;-72
2021/03/01 01:16:39;;;;;;;20.30;11.10;;;;;;;5.74;nan;102295.44;5015108;28;20558;-72
2021/03/01 01:19:06;;;;;;;25.60;10.90;;;;;;;5.79;nan;102290.84;5021919;28;20450;-72
2021/03/01 01:21:32;;;;;;;24.63;10.87;;;;;;;5.98;nan;102296.31;5023502;28;20514;-72
2021/03/01 01:23:58;;;;;;;20.23;10.73;;;;;;;6.05;nan;102289.84;5023566;28;20542;-72
2021/03/01 01:26:24;;;;;;;27.40;11.97;;;;;;;5.85;nan;102298.56;5023488;28;20570;-73
2021/03/01 01:28:50;;;;;;;19.20;10.23;;;;;;;5.60;nan;102304.78;5023837;28;20523;-72
2021/03/01 01:31:16;;;;;;;20.90;10.90;;;;;;;5.78;nan;102299.72;5022390;28;20530;-72
2021/03/01 01:33:43;;;;;;;24.00;10.60;;;;;;;5.97;nan;102291.94;5023997;28;20459;-72
2021/03/01 01:36:09;;;;;;;24.13;11.23;;;;;;;5.82;nan;102291.56;5023492;28;20514;-72
2021/03/01 01:38:36;;;;;;;21.37;11.17;;;;;;;5.79;nan;102286.38;5023802;28;20431;-72
2021/03/01 01:41:02;;;;;;;21.03;11.67;;;;;;;5.87;nan;102291.41;5022638;28;21096;-72
2021/03/01 01:43:28;;;;;;;22.50;12.40;;;;;;;6.07;nan;102292.44;5023432;28;20573;-72
2021/03/01 01:45:54;;;;;;;23.40;11.77;;;;;;;5.87;nan;102286.09;5022975;28;20642;-72
2021/03/01 01:48:20;;;;;;;22.00;12.30;;;;;;;5.97;nan;102290.16;5023198;28;20481;-72
2021/03/01 01:50:47;;;;;;;22.97;11.90;;;;;;;5.93;nan;102287.63;5023264;28;21055;-72
2021/03/01 01:53:13;;;;;;;24.80;11.53;;;;;;;6.32;nan;102279.00;5023420;28;20462;-73
2021/03/01 01:55:39;;;;;;;25.33;11.03;;;;;;;6.08;nan;102270.28;5023102;28;20498;-73
2021/03/01 01:58:06;;;;;;;19.77;11.97;;;;;;;5.73;nan;102278.66;5023436;28;20521;-73
2021/03/01 02:00:44;;;;;;;18.07;10.83;;;;;;;6.08;nan;102276.44;5022936;28;20546;-73
2021/03/01 02:03:34;;;;;;;23.87;13.10;;;;;;;5.78;nan;102273.16;5003786;28;20550;-73
2021/03/01 02:06:04;;;;;;;21.27;11.50;;;;;;;5.66;nan;102277.19;5005051;28;21071;-72
2021/03/01 02:08:33;;;;;;;21.93;11.70;;;;;;;5.63;nan;102271.97;5023912;28;20430;-72
2021/03/01 02:11:08;;;;;;;24.10;11.83;;;;;;;5.73;nan;102269.81;5022738;28;20482;-73
2021/03/01 02:13:38;;;;;;;20.60;10.80;;;;;;;5.49;nan;102255.75;5023232;28;20480;-72
2021/03/01 02:16:08;;;;;;;18.70;12.03;;;;;;;5.87;nan;102263.97;5020829;28;20502;-73
2021/03/01 02:18:35;;;;;;;21.33;10.97;;;;;;;5.62;nan;102260.53;5023496;28;20491;-72
2021/03/01 02:21:09;;;;;;;15.97;9.50;;;;;;;5.61;nan;102256.13;5022394;28;20565;-73
2021/03/01 02:23:36;;;;;;;20.23;9.43;;;;;;;5.49;nan;102263.69;5023306;28;20490;-72
2021/03/01 02:26:04;;;;;;;18.33;9.30;;;;;;;5.74;nan;102266.25;5021964;28;20545;-72
2021/03/01 02:28:33;;;;;;;18.10;9.80;;;;;;;5.80;nan;102260.72;5022884;28;20461;-73
2021/03/01 02:31:01;;;;;;;23.70;11.57;;;;;;;5.55;nan;102269.59;5022661;28;20478;-73
2021/03/01 02:33:31;;;;;;;18.73;10.43;;;;;;;5.58;nan;102260.69;5023003;28;20522;-72
2021/03/01 02:36:00;;;;;;;23.50;11.57;;;;;;;5.48;nan;102254.84;5022679;28;20539;-72
2021/03/01 02:38:27;;;;;;;20.80;10.90;;;;;;;5.51;nan;102254.75;5023088;28;20518;-72
2021/03/01 02:40:55;;;;;;;17.50;10.73;;;;;;;5.66;nan;102256.81;5022033;28;20482;-72
2021/03/01 02:43:22;;;;;;;19.03;10.03;;;;;;;5.63;nan;102256.91;5022776;28;20512;-72
2021/03/01 02:45:49;;;;;;;20.23;10.00;;;;;;;5.60;nan;102245.56;5022495;28;20474;-72
2021/03/01 02:48:16;;;;;;;15.90;8.43;;;;;;;5.44;nan;102243.50;5022932;28;20443;-73
2021/03/01 02:50:43;;;;;;;18.40;11.10;;;;;;;5.56;nan;102247.47;5022577;28;20488;-72
2021/03/01 02:53:10;;;;;;;18.47;10.90;;;;;;;5.27;nan;102240.63;5022773;28;20533;-72
2021/03/01 02:55:37;;;;;;;24.03;10.40;;;;;;;5.42;nan;102244.50;5022444;28;20533;-72
2021/03/01 02:58:04;;;;;;;27.23;10.97;;;;;;;5.41;nan;102248.91;5021997;28;20667;-72
2021/03/01 03:00:30;;;;;;;28.27;12.00;;;;;;;5.47;nan;102247.84;5021807;28;20914;-72
2021/03/01 03:02:56;;;;;;;22.67;11.17;;;;;;;5.60;nan;102245.56;5022206;28;20521;-73
2021/03/01 03:05:24;;;;;;;22.07;11.30;;;;;;;5.87;nan;102242.75;5022423;28;20861;-72
2021/03/01 03:07:51;;;;;;;21.40;11.47;;;;;;;5.43;nan;102251.50;5022718;28;20447;-73
2021/03/01 03:10:18;;;;;;;28.40;11.37;;;;;;;5.52;nan;102253.84;5022474;28;20458;-73
2021/03/01 03:12:45;;;;;;;33.47;13.03;;;;;;;5.61;nan;102250.81;5022349;28;20470;-72
2021/03/01 03:15:17;;;;;;;25.07;13.53;;;;;;;5.55;nan;102253.69;5020327;28;20542;-72
2021/03/01 03:17:43;;;;;;;24.63;12.60;;;;;;;5.71;nan;102250.44;5019175;28;20895;-72
2021/03/01 03:20:11;;;;;;;24.27;12.20;;;;;;;5.53;nan;102252.03;5002728;28;20474;-72
2021/03/01 03:22:37;;;;;;;25.80;13.50;;;;;;;5.33;nan;102244.81;5021735;28;20482;-72
2021/03/01 03:25:04;;;;;;;26.53;13.73;;;;;;;5.31;nan;102241.38;5022869;28;20474;-73
2021/03/01 03:27:30;;;;;;;27.87;12.80;;;;;;;5.60;nan;102237.59;5024643;28;20546;-72
2021/03/01 03:29:56;;;;;;;25.20;13.50;;;;;;;5.72;nan;102241.56;5026122;28;20545;-72
2021/03/01 03:32:23;;;;;;;24.60;12.20;;;;;;;5.68;nan;102248.78;5025461;28;20478;-72
2021/03/01 03:34:49;;;;;;;28.40;12.90;;;;;;;5.38;nan;102237.56;5026115;28;20940;-73
2021/03/01 03:37:18;;;;;;;23.03;11.13;;;;;;;5.25;nan;102245.97;5025169;28;20572;-72
2021/03/01 03:39:47;;;;;;;24.27;12.27;;;;;;;5.56;nan;102241.31;5025961;28;20449;-72
2021/03/01 03:42:15;;;;;;;25.03;13.10;;;;;;;5.69;nan;102234.56;5025348;28;20657;-72
2021/03/01 03:44:42;;;;;;;23.17;12.67;;;;;;;5.49;nan;102242.47;5025801;28;21040;-73
2021/03/01 03:47:09;;;;;;;23.10;13.03;;;;;;;5.53;nan;102238.75;5018369;28;20506;-73
2021/03/01 03:49:37;;;;;;;22.67;11.90;;;;;;;5.36;nan;102236.75;5026335;28;20507;-73
2021/03/01 03:52:05;;;;;;;28.57;12.60;;;;;;;5.63;nan;102238.34;5025350;28;20574;-72
2021/03/01 03:54:33;;;;;;;23.17;11.80;;;;;;;5.49;nan;102240.69;5025702;28;20526;-72
2021/03/01 03:57:03;;;;;;;23.87;12.30;;;;;;;5.75;nan;102242.31;5024360;28;20517;-73
2021/03/01 03:59:30;;;;;;;26.83;12.80;;;;;;;5.59;nan;102246.47;5025317;28;20522;-73
2021/03/01 04:01:57;;;;;;;23.30;13.07;;;;;;;5.73;nan;102248.59;5025031;28;20517;-72
2021/03/01 04:04:25;;;;;;;22.90;13.27;;;;;;;5.71;nan;102251.34;5025516;28;20533;-73
2021/03/01 04:06:53;;;;;;;24.80;13.40;;;;;;;5.63;nan;102251.63;5025343;28;20517;-73
2021/03/01 04:09:21;;;;;;;23.77;13.00;;;;;;;5.69;nan;102257.59;5025226;28;20455;-73
2021/03/01 04:11:48;;;;;;;26.77;12.40;;;;;;;5.23;nan;102249.63;5024521;28;20489;-73
2021/03/01 04:14:16;;;;;;;26.13;12.90;;;;;;;5.17;nan;102256.00;5024975;28;20565;-73
2021/03/01 04:16:43;;;;;;;30.27;12.77;;;;;;;5.30;nan;102248.47;5024696;28;20520;-73
2021/03/01 04:19:11;;;;;;;33.97;13.80;;;;;;;5.38;nan;102254.34;5025637;28;20463;-72
2021/03/01 04:21:37;;;;;;;26.93;13.63;;;;;;;5.05;nan;102251.13;5024531;28;20506;-72
2021/03/01 04:24:06;;;;;;;30.43;14.37;;;;;;;5.19;nan;102262.13;5024827;28;20894;-73
2021/03/01 04:26:32;;;;;;;31.27;14.10;;;;;;;5.17;nan;102250.69;5024968;28;20474;-72
2021/03/01 04:28:59;;;;;;;37.27;14.73;;;;;;;5.45;nan;102250.53;5024592;28;20549;-73
2021/03/01 04:31:26;;;;;;;30.50;15.50;;;;;;;5.43;nan;102252.41;5018512;28;20558;-72
2021/03/01 04:33:52;;;;;;;23.60;13.00;;;;;;;5.49;nan;102250.44;5024413;28;20478;-73
2021/03/01 04:36:19;;;;;;;25.77;12.50;;;;;;;5.28;nan;102247.66;5024068;28;20482;-72
2021/03/01 04:38:45;;;;;;;21.90;12.70;;;;;;;5.59;nan;102244.72;5024311;28;20442;-72
2021/03/01 04:41:12;;;;;;;24.20;12.07;;;;;;;5.40;nan;102247.19;5023845;28;20509;-73
2021/03/01 04:43:41;;;;;;;26.80;13.97;;;;;;;5.35;nan;102250.94;5024428;28;20486;-73
2021/03/01 04:46:07;;;;;;;29.17;13.40;;;;;;;5.46;nan;102254.06;5024261;28;20496;-72
2021/03/01 04:48:35;;;;;;;29.83;14.33;;;;;;;5.40;nan;102255.16;5024795;28;20554;-73
2021/03/01 04:51:01;;;;;;;26.97;13.20;;;;;;;5.54;nan;102249.31;5024264;28;20546;-73
2021/03/01 04:53:28;;;;;;;33.77;14.97;;;;;;;5.57;nan;102246.56;5024519;28;20469;-72
2021/03/01 04:55:55;;;;;;;27.03;12.80;;;;;;;5.75;nan;102250.28;5024050;28;20565;-73
2021/03/01 04:58:22;;;;;;;25.40;13.57;;;;;;;5.47;nan;102250.50;5024500;28;20561;-73
2021/03/01 05:00:48;;;;;;;31.83;14.73;;;;;;;5.73;nan;102243.28;5023168;28;21054;-72
2021/03/01 05:03:15;;;;;;;35.33;16.10;;;;;;;5.50;nan;102241.53;5024131;28;20558;-73
2021/03/01 05:05:41;;;;;;;28.40;14.57;;;;;;;5.47;nan;102243.38;5024082;28;20490;-72
2021/03/01 05:08:11;;;;;;;32.27;14.77;;;;;;;5.50;nan;102238.88;5024457;28;20450;-73
2021/03/01 05:10:39;;;;;;;32.60;15.07;;;;;;;5.04;nan;102238.81;5023458;28;20534;-73
2021/03/01 05:13:05;;;;;;;32.17;15.43;;;;;;;5.40;nan;102249.84;5024431;28;20550;-72
2021/03/01 05:15:32;;;;;;;31.70;15.13;;;;;;;5.32;nan;102241.31;5023291;28;20554;-73
2021/03/01 05:17:58;;;;;;;31.03;16.13;;;;;;;5.51;nan;102241.47;5024642;28;20438;-73
2021/03/01 05:20:25;;;;;;;36.30;16.30;;;;;;;5.60;nan;102242.91;5023435;28;20545;-73
2021/03/01 05:22:51;;;;;;;36.80;15.70;;;;;;;5.78;nan;102247.50;5023366;28;20510;-73
2021/03/01 05:25:17;;;;;;;30.33;16.00;;;;;;;5.95;nan;102233.53;5022407;28;20519;-72
2021/03/01 05:27:44;;;;;;;33.60;16.80;;;;;;;5.53;nan;102244.06;5019703;28;20431;-72
2021/03/01 05:30:11;;;;;;;33.83;17.40;;;;;;;5.79;nan;102249.22;5021068;28;20450;-72
2021/03/01 05:32:39;;;;;;;30.20;13.70;;;;;;;5.53;nan;102252.03;5022546;28;20463;-72
2021/03/01 05:35:06;;;;;;;28.00;15.03;;;;;;;5.69;nan;102255.81;5021416;28;20552;-73
2021/03/01 05:37:32;;;;;;;33.90;16.37;;;;;;;5.48;nan;102254.84;5021620;28;20462;-73
2021/03/01 05:39:58;;;;;;;34.83;16.73;;;;;;;5.30;nan;102252.91;5022952;28;20530;-72
2021/03/01 05:42:26;;;;;;;33.83;15.87;;;;;;;5.44;nan;102251.44;5021943;28;20545;-72
2021/03/01 05:44:53;;;;;;;28.53;15.07;;;;;;;5.50;nan;102252.13;5021421;28;20459;-72
2021/03/01 05:47:19;;;;;;;33.17;14.97;;;;;;;5.46;nan;102256.69;5021819;28;20528;-73
2021/03/01 05:49:46;;;;;;;31.73;15.33;;;;;;;5.27;nan;102251.22;5021486;28;20454;-72
2021/03/01 05:52:16;;;;;;;31.03;15.93;;;;;;;5.37;nan;102247.31;5021369;28;20481;-73
2021/03/01 05:54:44;;;;;;;30.50;15.90;;;;;;;5.05;nan;102259.97;5021771;28;20522;-74
2021/03/01 05:57:10;;;;;;;33.97;16.73;;;;;;;5.32;nan;102259.88;5020081;28;20489;-72
2021/03/01 05:59:36;;;;;;;40.83;18.03;;;;;;;5.23;nan;102258.44;5021004;28;20538;-72
2021/03/01 06:02:03;;;;;;;34.10;16.27;;;;;;;5.59;nan;102265.03;5021495;28;20550;-73
2021/03/01 06:04:29;;;;;;;31.97;15.10;;;;;;;5.63;nan;102262.22;5021960;28;20562;-72
2021/03/01 06:06:56;;;;;;;33.10;16.40;;;;;;;5.64;nan;102265.72;5020322;28;20502;-72
2021/03/01 06:09:22;;;;;;;23.73;13.70;;;;;;;5.27;nan;102268.00;5021501;28;20489;-72
2021/03/01 06:11:49;;;;;;;28.57;13.73;;;;;;;5.29;nan;102267.94;5021172;28;21028;-72
2021/03/01 06:14:15;;;;;;;29.27;13.37;;;;;;;5.16;nan;102264.88;5020371;28;21029;-72
2021/03/01 06:17:09;;;;;;;30.17;16.27;;;;;;;5.59;nan;102273.00;5021228;28;20719;-73
2021/03/01 06:19:49;;;;;;;30.47;13.23;;;;;;;5.77;nan;102272.31;5021981;28;20451;-72
2021/03/01 06:22:17;;;;;;;30.30;13.57;;;;;;;5.78;nan;102278.47;5020908;28;20498;-72
2021/03/01 06:24:43;;;;;;;27.50;15.10;;;;;;;5.46;nan;102281.44;5021579;28;20490;-72
2021/03/01 06:27:10;;;;;;;31.13;15.33;;;;;;;5.70;nan;102273.47;5019457;28;20561;-72
2021/03/01 06:30:06;;;;;;;27.90;14.37;;;;;;;5.78;nan;102270.50;5020993;28;20450;-72
2021/03/01 06:32:32;;;;;;;34.33;14.40;;;;;;;5.58;nan;102266.84;5021352;28;20960;-72
2021/03/01 06:34:58;;;;;;;28.83;14.77;;;;;;;5.38;nan;102270.28;5017854;28;20463;-72
2021/03/01 06:37:25;;;;;;;26.83;12.90;;;;;;;5.18;nan;102265.69;5001537;28;20749;-72
2021/03/01 06:39:53;;;;;;;26.23;13.40;;;;;;;5.72;nan;102263.66;5017724;28;20471;-71
2021/03/01 06:42:21;;;;;;;23.80;12.93;;;;;;;5.97;nan;102260.06;5019804;28;20482;-72
2021/03/01 06:44:49;;;;;;;24.17;13.17;;;;;;;5.49;nan;102267.22;5020685;28;20465;-71
2021/03/01 06:47:15;;;;;;;23.27;11.53;;;;;;;5.41;nan;102263.97;5021027;28;20485;-72
2021/03/01 06:49:44;;;;;;;26.90;12.77;;;;;;;5.38;nan;102261.41;5017765;28;20580;-70
2021/03/01 06:52:10;;;;;;;27.97;13.80;;;;;;;5.14;nan;102257.88;5020107;28;20474;-70
2021/03/01 06:54:38;;;;;;;25.23;11.40;;;;;;;5.16;nan;102261.38;5016504;28;20546;-70
2021/03/01 06:57:04;;;;;;;25.93;13.00;;;;;;;5.09;nan;102263.38;5019024;28;21198;-70
2021/03/01 06:59:30;;;;;;;23.17;11.40;;;;;;;4.92;nan;102260.47;5020795;28;20451;-70
2021/03/01 07:01:58;;;;;;;21.80;11.27;;;;;;;5.20;nan;102252.38;5022036;28;20691;-71
2021/03/01 07:04:25;;;;;;;19.57;11.03;;;;;;;5.16;nan;102264.88;5023664;28;20524;-72
2021/03/01 07:06:52;;;;;;;21.07;11.30;;;;;;;4.97;nan;102269.13;5023893;28;20505;-72
2021/03/01 07:09:19;;;;;;;18.70;10.83;;;;;;;5.26;nan;102268.06;5023131;28;20474;-72
2021/03/01 07:11:47;;;;;;;20.73;10.60;;;;;;;5.03;nan;102263.59;5022149;28;21170;-72
2021/03/01 07:14:14;;;;;;;20.57;11.57;;;;;;;5.22;nan;102269.94;5024448;28;20494;-72
2021/03/01 07:16:42;;;;;;;20.73;10.83;;;;;;;5.29;nan;102281.19;5024369;28;20486;-72
2021/03/01 07:19:12;;;;;;;21.20;11.03;;;;;;;5.21;nan;102275.34;5023634;28;20471;-72
2021/03/01 07:21:40;;;;;;;23.37;10.70;;;;;;;5.36;nan;102280.03;5023898;28;20478;-72
2021/03/01 07:24:07;;;;;;;27.47;12.90;;;;;;;5.11;nan;102274.78;5024389;28;20485;-72
2021/03/01 07:26:34;;;;;;;21.73;11.87;;;;;;;5.09;nan;102268.69;5029402;28;20496;-72
2021/03/01 07:29:08;;;;;;;24.57;12.00;;;;;;;5.28;nan;102274.19;5040792;28;20450;-72
2021/03/01 07:31:36;;;;;;;19.43;10.80;;;;;;;5.23;nan;102277.00;5016455;28;20571;-72
2021/03/01 07:34:06;;;;;;;19.50;8.83;;;;;;;4.84;nan;102272.22;5003789;28;20530;-72
2021/03/01 07:36:32;;;;;;;21.10;12.00;;;;;;;5.07;nan;102270.53;5004254;28;20518;-72
2021/03/01 07:39:00;;;;;;;24.53;10.57;;;;;;;5.00;nan;102261.94;5023008;28;20477;-72
2021/03/01 07:41:26;;;;;;;21.40;10.80;;;;;;;5.05;nan;102261.75;5022575;28;20528;-72
2021/03/01 07:43:53;;;;;;;17.10;10.90;;;;;;;5.06;nan;102268.78;5024443;28;20495;-72
2021/03/01 07:46:24;;;;;;;21.70;11.77;;;;;;;4.86;nan;102266.81;5023625;28;20554;-72
2021/03/01 07:48:50;;;;;;;20.23;10.27;;;;;;;4.93;nan;102265.72;5029009;28;20517;-72
2021/03/01 07:51:41;;;;;;;19.57;10.57;;;;;;;5.26;nan;102271.59;5030237;28;20478;-72
2021/03/01 07:54:07;;;;;;;26.27;11.30;;;;;;;5.42;nan;102269.22;5023963;28;20512;-71
2021/03/01 07:56:44;;;;;;;23.57;11.53;;;;;;;5.33;nan;102266.03;5022188;28;20486;-72
2021/03/01 07:59:12;;;;;;;20.87;9.90;;;;;;;5.61;nan;102265.88;5024262;28;20513;-72
2021/03/01 08:01:39;;;;;;;24.93;11.20;;;;;;;5.39;nan;102271.13;5023706;28;20486;-72
2021/03/01 08:04:06;;;;;;;21.10;11.40;;;;;;;5.43;nan;102270.06;5022736;28;20570;-72
2021/03/01 08:06:56;;;;;;;21.63;10.90;;;;;;;5.41;nan;102274.56;5010736;28;20474;-72
2021/03/01 08:09:51;;;;;;;21.17;11.83;;;;;;;5.69;nan;102278.84;5004831;28;20516;-72
2021/03/01 08:12:58;;;;;;;17.50;10.43;;;;;;;6.11;nan;102270.13;5022688;28;20537;-72
2021/03/01 08:15:39;;;;;;;22.27;12.53;;;;;;;6.14;nan;102272.66;5021307;28;20521;-72
2021/03/01 08:18:07;;;;;;;23.10;11.40;;;;;;;5.98;nan;102270.63;5003149;28;20460;-72
2021/03/01 08:20:39;;;;;;;23.23;11.37;;;;;;;5.71;nan;102274.34;5009458;28;20473;-72
2021/03/01 08:23:18;;;;;;;22.57;10.90;;;;;;;6.03;nan;102284.59;5023205;28;20522;-72
2021/03/01 08:25:57;;;;;;;23.00;11.27;;;;;;;6.40;nan;102282.22;5017694;28;20485;-72
2021/03/01 08:29:00;;;;;;;19.63;11.60;;;;;;;5.95;nan;102286.63;5023381;28;20458;-72
2021/03/01 08:31:39;;;;;;;22.63;11.87;;;;;;;5.29;nan;102278.53;5020822;28;20482;-72
2021/03/01 08:34:33;;;;;;;23.10;11.03;;;;;;;5.59;nan;102288.94;5021623;28;20458;-72
2021/03/01 08:37:00;;;;;;;23.57;11.47;;;;;;;5.56;nan;102295.22;5021274;28;20489;-72
2021/03/01 08:39:57;;;;;;;23.60;11.87;;;;;;;5.80;nan;102296.09;5023659;28;20526;-72
2021/03/01 08:42:56;;;;;;;27.93;11.50;;;;;;;5.18;nan;102288.69;5015593;28;20482;-74
2021/03/01 08:45:28;;;;;;;21.80;10.67;;;;;;;5.31;nan;102283.78;5018581;28;20463;-73
2021/03/01 08:47:56;;;;;;;17.23;10.33;;;;;;;5.62;nan;102288.81;5021787;28;20471;-73
2021/03/01 08:50:26;;;;;;;20.40;9.97;;;;;;;5.51;nan;102291.03;5039594;28;20446;-74
2021/03/01 08:52:52;;;;;;;18.93;10.70;;;;;;;5.52;nan;102284.78;5007131;28;20879;-73
2021/03/01 08:55:20;;;;;;;20.07;10.13;;;;;;;5.50;nan;102282.19;5020062;28;20470;-75
2021/03/01 08:58:04;;;;;;;22.73;10.37;;;;;;;5.96;nan;102277.78;5021667;28;20486;-75
2021/03/01 09:00:32;;;;;;;21.53;10.90;;;;;;;5.77;nan;102284.72;5020410;28;20473;-73
2021/03/01 09:03:15;;;;;;;23.10;12.40;;;;;;;5.87;nan;102294.06;5021559;28;20513;-74
2021/03/01 09:05:44;;;;;;;20.30;11.07;;;;;;;6.03;nan;102286.38;5021216;28;20458;-75
2021/03/01 09:08:10;;;;;;;20.00;11.20;;;;;;;5.93;nan;102292.94;5022258;28;20474;-75
2021/03/01 09:10:39;;;;;;;22.40;11.40;;;;;;;5.44;nan;102291.25;5020421;28;20478;-74
2021/03/01 09:13:05;;;;;;;20.70;11.23;;;;;;;5.83;nan;102289.78;5022480;28;20447;-72
2021/03/01 09:15:32;;;;;;;28.10;13.13;;;;;;;5.50;nan;102303.41;5021071;28;20467;-70
2021/03/01 09:17:58;;;;;;;18.67;10.07;;;;;;;5.64;nan;102300.22;5020612;28;20446;-72
2021/03/01 09:20:24;;;;;;;18.87;10.63;;;;;;;5.54;nan;102299.75;5019061;28;20831;-73
2021/03/01 09:22:52;;;;;;;18.40;11.10;;;;;;;5.80;nan;102293.44;5025989;28;20491;-75
2021/03/01 09:25:28;;;;;;;21.13;11.20;;;;;;;5.48;nan;102294.66;5019476;28;20482;-73
2021/03/01 09:27:54;;;;;;;20.90;11.37;;;;;;;6.03;nan;102294.34;5030805;28;20480;-73
2021/03/01 09:30:22;;;;;;;26.63;12.37;;;;;;;5.65;nan;102291.38;5020951;28;21006;-72
2021/03/01 09:32:55;;;;;;;21.30;11.53;;;;;;;5.87;nan;102296.72;5020836;28;20505;-72
2021/03/01 09:35:23;;;;;;;19.40;12.00;;;;;;;5.87;nan;102288.75;5021414;28;20438;-72
2021/03/01 09:37:49;;;;;;;17.80;10.33;;;;;;;6.07;nan;102289.78;5021763;28;20459;-72
2021/03/01 09:40:18;;;;;;;19.03;11.10;;;;;;;5.97;nan;102291.94;5021573;28;20455;-72
2021/03/01 09:42:47;;;;;;;18.80;10.40;;;;;;;5.74;nan;102293.66;5028543;28;20494;-74
2021/03/01 09:45:15;;;;;;;19.03;11.00;;;;;;;5.65;nan;102288.72;5020963;28;20454;-73
2021/03/01 09:47:41;;;;;;;20.60;12.50;;;;;;;5.41;nan;102285.19;5020448;28;20497;-74
2021/03/01 09:50:08;;;;;;;20.13;11.77;;;;;;;5.07;nan;102283.78;5028685;28;20486;-74
2021/03/01 09:52:35;;;;;;;19.77;10.13;;;;;;;5.69;nan;102292.09;5020991;28;20451;-73
2021/03/01 09:55:01;;;;;;;19.13;10.90;;;;;;;5.48;nan;102292.00;5020243;28;20591;-73
2021/03/01 09:57:31;;;;;;;22.33;11.43;;;;;;;5.40;nan;102294.06;5019276;28;20483;-72
2021/03/01 09:59:57;;;;;;;19.20;11.87;;;;;;;5.54;nan;102294.44;5020066;28;20455;-74
2021/03/01 10:02:24;;;;;;;20.50;11.67;;;;;;;5.84;nan;102291.53;5019133;28;20518;-73
2021/03/01 10:04:51;;;;;;;23.97;11.67;;;;;;;6.25;nan;102288.16;5020455;28;20459;-75
2021/03/01 10:07:19;;;;;;;17.63;9.80;;;;;;;6.34;nan;102279.84;5017388;28;20482;-73
2021/03/01 10:09:45;;;;;;;24.03;11.37;;;;;;;6.45;nan;102284.69;5020397;28;20992;-71
2021/03/01 10:12:12;;;;;;;17.00;10.33;;;;;;;7.12;nan;102286.25;5020105;28;20475;-74
2021/03/01 10:14:39;;;;;;;17.30;9.90;;;;;;;5.70;nan;102286.75;5020859;28;20482;-74
2021/03/01 10:17:19;;;;;;;17.93;9.70;;;;;;;6.12;nan;102298.44;5020338;28;20474;-71
2021/03/01 10:19:46;;;;;;;22.07;10.80;;;;;;;6.09;nan;102287.94;5025853;28;20514;-73
2021/03/01 10:22:13;;;;;;;15.77;9.23;;;;;;;6.39;nan;102283.16;5020147;28;20474;-73
2021/03/01 10:24:42;;;;;;;17.90;10.00;;;;;;;6.21;nan;102283.00;5019765;28;20443;-72
2021/03/01 10:27:09;;;;;;;14.97;9.00;;;;;;;6.12;nan;102290.47;5019687;28;20482;-74
2021/03/01 10:29:38;;;;;;;16.53;8.53;;;;;;;6.59;nan;102282.31;5021071;28;20485;-74
2021/03/01 10:32:17;;;;;;;21.20;11.10;;;;;;;6.45;nan;102290.88;5020019;28;20482;-73
2021/03/01 10:34:43;;;;;;;18.43;9.97;;;;;;;6.34;nan;102282.50;5020046;28;20457;-72
2021/03/01 10:37:10;;;;;;;29.60;11.30;;;;;;;6.92;nan;102280.00;5019774;28;20514;-73
2021/03/01 10:39:37;;;;;;;22.67;11.33;;;;;;;6.79;nan;102279.69;5021407;28;20447;-73
2021/03/01 10:42:11;;;;;;;17.00;9.97;;;;;;;7.44;nan;102281.28;5009617;28;20486;-74
2021/03/01 10:44:40;;;;;;;20.70;10.53;;;;;;;7.12;nan;102287.13;5020320;28;20473;-74
2021/03/01 10:47:15;;;;;;;19.73;10.00;;;;;;;6.93;nan;102281.75;5020312;28;20498;-72
2021/03/01 10:49:42;;;;;;;18.80;10.07;;;;;;;6.31;nan;102283.47;5012653;28;20458;-72
2021/03/01 10:52:09;;;;;;;20.30;10.50;;;;;;;6.47;nan;102283.69;5020061;28;20463;-72
2021/03/01 10:54:36;;;;;;;19.13;10.37;;;;;;;6.69;nan;102291.63;5020874;28;20462;-71
2021/03/01 10:57:02;;;;;;;19.10;9.30;;;;;;;6.73;nan;102281.75;5018575;28;20486;-72
2021/03/01 10:59:28;;;;;;;20.70;11.07;;;;;;;7.10;nan;102278.34;5020426;28;20467;-70
2021/03/01 11:01:55;;;;;;;18.30;10.63;;;;;;;7.15;nan;102283.44;5020380;28;20491;-73
2021/03/01 11:04:22;;;;;;;21.10;9.97;;;;;;;7.36;nan;102271.00;5019921;28;20978;-74
2021/03/01 11:07:03;;;;;;;16.87;10.10;;;;;;;7.25;nan;102278.59;5020094;28;21066;-77
2021/03/01 11:09:30;;;;;;;19.40;10.63;;;;;;;7.29;nan;102281.06;4958054;29;20988;-73
2021/03/01 11:11:56;;;;;;;15.77;9.73;;;;;;;6.96;nan;102281.63;4948688;28;21034;-74
2021/03/01 11:14:22;;;;;;;16.80;9.47;;;;;;;7.22;nan;102281.38;4952686;28;20486;-73
2021/03/01 11:16:49;;;;;;;17.67;10.53;;;;;;;7.05;nan;102279.47;4943808;29;20565;-73
2021/03/01 11:19:16;;;;;;;17.07;9.63;;;;;;;6.26;nan;102279.28;4955769;29;20445;-72
2021/03/01 11:21:44;;;;;;;16.40;8.10;;;;;;;6.40;nan;102276.91;4959005;28;20488;-72
2021/03/01 11:24:11;;;;;;;21.20;10.40;;;;;;;5.89;nan;102270.97;4947447;28;20565;-72
2021/03/01 11:26:37;;;;;;;17.13;9.80;;;;;;;6.09;nan;102274.66;4936952;29;20509;-72
2021/03/01 11:29:03;;;;;;;19.47;11.90;;;;;;;5.93;nan;102272.56;4951362;29;20490;-71
2021/03/01 11:31:32;;;;;;;20.50;9.87;;;;;;;6.46;nan;102266.03;4940792;29;20504;-72
2021/03/01 11:34:00;;;;;;;17.00;8.93;;;;;;;7.00;nan;102258.41;4945161;28;20558;-71
2021/03/01 11:36:26;;;;;;;19.30;10.00;;;;;;;6.71;nan;102257.03;4941656;29;20490;-75
2021/03/01 11:38:53;;;;;;;17.50;9.03;;;;;;;6.93;nan;102244.50;4945700;29;21078;-75
2021/03/01 11:41:19;;;;;;;17.97;9.23;;;;;;;6.87;nan;102250.09;4939419;28;21050;-76